Terminal Aerodrome Forecast
Issued by NWS New Orleans/Baton Rouge, LA

Home | Current Version | Previous Version | Text Only | Print | Product List | Glossary On
Versions: 1 2 3 4 5 6 7 8 9 10 11 12 13
000
FTUS44 KLIX 211128
TAFNEW
TAF
KNEW 211128Z 2112/2212 VRB04KT P6SM FEW020
     FM211500 03006KT P6SM VCTS SCT025CB
     FM212100 08008KT P6SM SCT025 PROB30 2121/2124 4SM TSRA BKN025CB
     FM220000 11006KT P6SM FEW030
     FM220300 14006KT P6SM FEW020 SCT110
     FM220700 20005KT P6SM FEW015 SCT250=

USA.gov is the U.S. government's official web portal to all federal, state and local government web resources and services.